Veyo, Utah
Current Conditions -  °F | °C
As of 5:55 PM on Saturday 25 Oct 2014 (Local Time) from KSGU Reporting Station
Few Clouds Few Clouds  
Wind Chill: 82°   Ceiling: Unl
Heat Index: 82°   Visibility: 10mi
Dew Point: 43°   Wind: 20mph
Humidity: 25%   Direction: 210°SSW
Pressure: 29.99"   Gusts: 25mph
Location:  37.34°N, 113.69°W
Report Text: KSGU 252355Z AUTO 21017G22KT 10SM FEW095 28/06 A2999 RMK AO1 10290 20200 402900110 57020
Loading
Personal Weather Stations






























Interactive Weather Map
Tropical Storm Tracking
New forecast layout! Learn more

10-Day Weather Forecast

Advertisements
Track Severe Weather on mobile